Time;durP1;ratioP1;P1;durP2;ratioP2;P2;SDS_P1;SDS_P2;PMS_P1;PMS_P2;Temp;Humidity;BMP_temperature;BMP_pressure;BME280_temperature;BME280_humidity;BME280_pressure;Samples;Min_cycle;Max_cycle;Signal;HPM_P1;HPM_P2
2023/09/17 00:00:44;;;;;;;11.93;10.65;;;;;;;20.87;67.86;101233.31;5016066;28;20033;-75
2023/09/17 00:03:10;;;;;;;13.35;10.57;;;;;;;20.83;67.24;101236.34;5032895;28;20083;-75
2023/09/17 00:05:35;;;;;;;12.88;11.10;;;;;;;20.78;67.76;101233.16;5037745;28;20393;-74
2023/09/17 00:08:00;;;;;;;12.07;10.10;;;;;;;20.75;66.93;101225.34;5041242;28;20108;-74
2023/09/17 00:10:26;;;;;;;13.63;11.07;;;;;;;20.70;66.50;101224.84;5041402;28;20017;-74
2023/09/17 00:12:55;;;;;;;13.93;11.25;;;;;;;20.65;66.09;101217.13;5023551;28;20040;-75
2023/09/17 00:15:27;;;;;;;11.98;10.40;;;;;;;20.62;66.33;101220.91;5032763;28;20292;-74
2023/09/17 00:17:53;;;;;;;12.25;10.02;;;;;;;20.59;65.48;101218.44;5010701;28;20037;-74
2023/09/17 00:20:19;;;;;;;11.02;9.75;;;;;;;20.51;66.13;101215.50;5047366;28;20035;-74
2023/09/17 00:22:44;;;;;;;11.50;10.30;;;;;;;20.55;65.92;101198.16;5035988;28;20112;-74
2023/09/17 00:25:10;;;;;;;14.77;10.10;;;;;;;20.49;66.07;101198.66;5040603;28;20017;-74
2023/09/17 00:27:35;;;;;;;10.65;9.45;;;;;;;20.46;65.15;101206.88;5038865;28;20028;-74
2023/09/17 00:30:00;;;;;;;9.82;8.82;;;;;;;20.48;65.51;101209.50;5034359;28;20027;-74
2023/09/17 00:32:26;;;;;;;11.90;9.32;;;;;;;20.42;66.05;101197.34;5037401;28;20104;-74
2023/09/17 00:34:51;;;;;;;10.88;9.32;;;;;;;20.41;65.53;101208.22;5036790;28;20035;-74
2023/09/17 00:37:17;;;;;;;9.27;8.38;;;;;;;20.43;65.79;101215.19;5042488;28;20024;-74
2023/09/17 00:39:43;;;;;;;13.43;8.63;;;;;;;20.33;65.96;101230.25;5033701;28;20405;-74
2023/09/17 00:42:09;;;;;;;10.13;9.05;;;;;;;20.34;66.26;101230.16;5043714;28;20077;-74
2023/09/17 00:44:34;;;;;;;10.15;8.77;;;;;;;20.32;66.69;101234.78;5031789;28;20307;-74
2023/09/17 00:47:02;;;;;;;9.30;8.13;;;;;;;20.30;66.61;101241.25;5036216;28;20400;-74
2023/09/17 00:49:28;;;;;;;10.50;8.30;;;;;;;20.23;67.13;101242.66;5040560;28;20031;-75
2023/09/17 00:51:53;;;;;;;14.05;9.55;;;;;;;20.20;67.76;101237.56;5031550;28;20032;-74
2023/09/17 00:54:22;;;;;;;11.70;9.10;;;;;;;20.16;70.61;101223.50;5046917;28;20091;-74
2023/09/17 00:56:49;;;;;;;13.18;9.75;;;;;;;19.88;72.85;101219.31;5034236;28;20112;-74
2023/09/17 00:59:14;;;;;;;15.45;11.00;;;;;;;19.58;74.57;101211.59;5049214;28;20463;-74
2023/09/17 01:01:39;;;;;;;13.15;10.95;;;;;;;19.20;76.98;101209.84;5050783;28;20046;-75
2023/09/17 01:04:07;;;;;;;13.57;10.48;;;;;;;18.91;78.10;101213.69;5023209;28;20025;-75
2023/09/17 01:06:32;;;;;;;14.57;12.00;;;;;;;18.73;78.57;101219.34;5005934;28;1033340;-75
2023/09/17 01:08:58;;;;;;;15.48;10.43;;;;;;;18.73;78.78;101221.16;5040818;28;20037;-76
2023/09/17 01:11:24;;;;;;;15.60;11.82;;;;;;;18.70;78.74;101211.53;5037834;28;20021;-76
2023/09/17 01:13:58;;;;;;;14.90;11.65;;;;;;;18.73;78.75;101216.66;5039166;28;20448;-76
2023/09/17 01:16:26;;;;;;;14.05;12.02;;;;;;;18.75;78.57;101209.41;5036961;28;20025;-76
2023/09/17 01:18:53;;;;;;;17.75;11.52;;;;;;;18.73;78.15;101205.97;5029742;28;20067;-77
2023/09/17 01:21:48;;;;;;;14.60;11.73;;;;;;;18.73;78.10;101205.97;5038711;28;20033;-76
2023/09/17 01:24:48;;;;;;;13.32;11.63;;;;;;;18.76;77.22;101200.41;5032275;28;20120;-76
2023/09/17 01:27:15;;;;;;;13.43;12.02;;;;;;;18.80;77.81;101191.19;5041941;28;20099;-76
2023/09/17 01:29:42;;;;;;;13.45;12.05;;;;;;;18.82;77.22;101189.25;5037046;28;20033;-76
2023/09/17 01:32:09;;;;;;;13.15;11.48;;;;;;;18.78;77.32;101189.56;5042763;28;20060;-76
2023/09/17 01:34:38;;;;;;;14.27;11.90;;;;;;;18.81;77.65;101187.53;5051739;28;20546;-76
2023/09/17 01:37:30;;;;;;;12.27;10.70;;;;;;;18.97;75.98;101186.47;5041676;28;20054;-76
2023/09/17 01:40:05;;;;;;;14.45;11.82;;;;;;;18.98;76.18;101190.84;5033250;28;20048;-76
2023/09/17 01:42:31;;;;;;;14.73;11.80;;;;;;;18.96;76.45;101184.75;5037605;28;20124;-76
2023/09/17 01:44:58;;;;;;;14.38;12.45;;;;;;;18.97;76.41;101189.16;5034600;28;20542;-76
2023/09/17 01:47:25;;;;;;;13.52;11.32;;;;;;;18.98;76.53;101172.09;5022719;28;20018;-76
2023/09/17 01:49:51;;;;;;;12.98;11.68;;;;;;;19.04;76.56;101179.72;5040640;28;20471;-76
2023/09/17 01:52:22;;;;;;;14.60;12.05;;;;;;;19.04;76.73;101174.38;5044078;28;20037;-76
2023/09/17 01:54:49;;;;;;;15.02;11.82;;;;;;;19.00;76.06;101164.81;5042519;28;20492;-76
2023/09/17 01:57:14;;;;;;;13.40;11.95;;;;;;;18.97;76.18;101163.22;5041483;28;20036;-76
2023/09/17 01:59:40;;;;;;;14.15;12.60;;;;;;;18.95;76.52;101159.78;5050519;28;20040;-76
2023/09/17 02:02:06;;;;;;;14.63;12.18;;;;;;;18.97;76.40;101159.69;5043571;28;20400;-76
2023/09/17 02:04:31;;;;;;;12.98;11.57;;;;;;;18.91;76.55;101160.13;5030255;28;20058;-76
2023/09/17 02:06:57;;;;;;;12.93;11.60;;;;;;;18.91;77.24;101165.47;5037842;28;20525;-76
2023/09/17 02:09:22;;;;;;;14.90;12.95;;;;;;;18.83;77.22;101168.66;5044342;28;20068;-77
2023/09/17 02:11:49;;;;;;;17.27;12.80;;;;;;;18.82;77.83;101173.19;5040479;28;20464;-76
2023/09/17 02:14:15;;;;;;;14.48;12.98;;;;;;;18.83;78.00;101166.84;5048297;28;20047;-76
2023/09/17 02:16:40;;;;;;;15.98;13.02;;;;;;;18.82;77.83;101151.75;5041604;28;20041;-76
2023/09/17 02:19:06;;;;;;;15.20;13.60;;;;;;;18.83;77.98;101166.00;5019609;28;20017;-76
2023/09/17 02:21:31;;;;;;;15.32;13.73;;;;;;;18.83;78.35;101166.84;5042986;28;20025;-76
2023/09/17 02:23:56;;;;;;;17.58;14.05;;;;;;;18.81;79.42;101163.44;5023803;28;20025;-76
2023/09/17 02:26:22;;;;;;;19.33;14.32;;;;;;;18.77;78.54;101159.25;5020003;28;20033;-76
2023/09/17 02:28:47;;;;;;;17.65;14.85;;;;;;;18.53;79.44;101150.19;5042419;28;20049;-76
2023/09/17 02:31:13;;;;;;;16.33;13.52;;;;;;;18.65;78.76;101151.16;5046605;28;20025;-76
2023/09/17 02:33:39;;;;;;;17.30;14.27;;;;;;;18.65;79.16;101151.16;5027979;28;20115;-76
2023/09/17 02:36:05;;;;;;;17.20;14.20;;;;;;;18.64;79.21;101146.78;5039036;28;20037;-76
2023/09/17 02:38:31;;;;;;;17.45;14.65;;;;;;;18.65;78.76;101135.94;5033641;28;20112;-76
2023/09/17 02:40:56;;;;;;;18.10;14.25;;;;;;;18.66;78.26;101128.81;5053239;28;20113;-76
2023/09/17 02:43:22;;;;;;;17.88;14.60;;;;;;;18.64;78.21;101126.19;5043660;28;21672;-76
2023/09/17 02:45:49;;;;;;;16.38;13.80;;;;;;;18.61;78.12;101131.78;5025431;28;20550;-76
2023/09/17 02:48:15;;;;;;;19.27;14.30;;;;;;;18.57;77.66;101124.94;5039038;28;20029;-76
2023/09/17 02:50:40;;;;;;;15.93;14.10;;;;;;;18.57;77.28;101124.94;5041158;28;20104;-76
2023/09/17 02:53:07;;;;;;;17.75;14.30;;;;;;;18.53;77.66;101124.28;5049597;28;20028;-76
2023/09/17 02:55:34;;;;;;;21.20;13.57;;;;;;;18.25;79.05;101119.97;5041661;28;20028;-76
2023/09/17 02:58:01;;;;;;;19.75;14.07;;;;;;;18.14;79.51;101122.50;5037970;28;20133;-75
2023/09/17 03:00:26;;;;;;;17.55;14.82;;;;;;;18.29;78.72;101115.25;5040457;28;20045;-75
2023/09/17 03:02:54;;;;;;;17.23;13.13;;;;;;;18.30;78.61;101120.50;5020799;28;20037;-75
2023/09/17 03:05:20;;;;;;;16.38;14.20;;;;;;;18.28;78.95;101114.41;5039218;28;20428;-75
2023/09/17 03:07:46;;;;;;;20.42;15.35;;;;;;;18.18;79.51;101118.63;5043338;28;20071;-75
2023/09/17 03:10:12;;;;;;;17.23;13.60;;;;;;;17.79;80.84;101115.00;5023072;28;20551;-75
2023/09/17 03:12:41;;;;;;;18.67;14.25;;;;;;;17.71;81.71;101122.63;5035960;28;20481;-76
2023/09/17 03:15:07;;;;;;;16.13;14.43;;;;;;;17.69;81.93;101118.34;5040036;28;20029;-75
2023/09/17 03:17:36;;;;;;;17.63;14.85;;;;;;;17.76;82.19;101111.66;5027808;28;20387;-75
2023/09/17 03:20:13;;;;;;;20.38;15.27;;;;;;;17.62;81.63;101107.19;5034401;28;20033;-75
2023/09/17 03:22:38;;;;;;;17.45;14.63;;;;;;;17.58;82.12;101111.91;5045599;28;21803;-75
2023/09/17 03:25:05;;;;;;;16.98;14.50;;;;;;;17.56;81.72;101110.28;5044711;28;20148;-75
2023/09/17 03:27:33;;;;;;;19.58;15.50;;;;;;;17.50;82.43;101119.56;5040436;28;20025;-76
2023/09/17 03:29:59;;;;;;;19.30;15.38;;;;;;;17.46;82.57;101118.03;5031175;28;20429;-76
2023/09/17 03:32:24;;;;;;;17.92;15.93;;;;;;;17.50;82.64;101121.38;5029864;28;20087;-76
2023/09/17 03:34:49;;;;;;;17.90;15.75;;;;;;;17.70;81.11;101120.06;5038675;28;20036;-76
2023/09/17 03:37:15;;;;;;;19.75;15.00;;;;;;;17.57;81.31;101123.53;5026535;28;20036;-76
2023/09/17 03:39:43;;;;;;;18.15;15.85;;;;;;;17.45;81.84;101115.47;5044658;28;20064;-76
2023/09/17 03:42:08;;;;;;;17.60;14.80;;;;;;;17.52;82.01;101116.78;5033682;28;20190;-76
2023/09/17 03:44:34;;;;;;;16.85;15.05;;;;;;;17.69;80.68;101110.34;5024312;28;20136;-76
2023/09/17 03:46:59;;;;;;;17.30;14.85;;;;;;;17.63;80.89;101116.94;5054875;28;20245;-77
2023/09/17 03:49:26;;;;;;;17.08;15.30;;;;;;;17.72;80.52;101116.34;5045176;28;20407;-77
2023/09/17 03:51:52;;;;;;;16.25;13.93;;;;;;;17.74;80.01;101110.91;5042199;28;20029;-77
2023/09/17 03:54:17;;;;;;;17.20;15.00;;;;;;;17.74;79.96;101113.59;5044888;28;20384;-77
2023/09/17 03:56:43;;;;;;;18.35;15.13;;;;;;;17.79;79.92;101115.00;5023047;28;20095;-77
2023/09/17 03:59:09;;;;;;;16.67;14.30;;;;;;;17.85;80.06;101114.59;5024772;28;20059;-77
2023/09/17 04:01:34;;;;;;;17.50;15.30;;;;;;;17.90;80.13;101113.44;5043641;28;20068;-77
2023/09/17 04:03:59;;;;;;;17.25;14.88;;;;;;;17.94;79.24;101113.13;5023276;28;20088;-77
2023/09/17 04:06:27;;;;;;;18.80;15.07;;;;;;;17.94;79.17;101112.28;5046524;28;20035;-77
2023/09/17 04:08:52;;;;;;;19.17;14.57;;;;;;;17.93;79.60;101113.22;5035816;28;20025;-77
2023/09/17 04:11:19;;;;;;;16.95;15.13;;;;;;;17.98;79.81;101117.31;5043899;28;20091;-78
2023/09/17 04:13:44;;;;;;;18.30;15.35;;;;;;;18.03;79.47;101111.66;5044741;28;20033;-78
2023/09/17 04:16:10;;;;;;;18.27;16.33;;;;;;;17.98;80.50;101106.63;5040980;28;20032;-78
2023/09/17 04:18:36;;;;;;;18.80;15.43;;;;;;;18.12;79.41;101104.84;5035658;28;20033;-78
2023/09/17 04:21:01;;;;;;;19.60;15.48;;;;;;;17.98;79.91;101105.75;5039968;28;20029;-78
2023/09/17 04:23:26;;;;;;;18.23;15.30;;;;;;;18.02;80.03;101104.59;5039654;28;20025;-78
2023/09/17 04:25:52;;;;;;;19.00;16.30;;;;;;;18.01;80.11;101105.56;5041264;28;20094;-78
2023/09/17 04:28:19;;;;;;;20.52;15.90;;;;;;;18.00;80.39;101103.81;5019240;28;20017;-78
2023/09/17 04:30:44;;;;;;;19.27;16.27;;;;;;;18.00;80.56;101098.47;5044926;28;20484;-78
2023/09/17 04:33:09;;;;;;;18.85;15.88;;;;;;;18.02;80.02;101100.09;5042630;28;20064;-78
2023/09/17 04:35:35;;;;;;;20.02;15.93;;;;;;;18.04;79.87;101102.66;5040386;28;20055;-78
2023/09/17 04:38:00;;;;;;;19.83;16.88;;;;;;;18.09;80.50;101100.53;5015721;28;20025;-78
2023/09/17 04:40:28;;;;;;;21.08;17.17;;;;;;;18.06;80.50;101100.75;5038487;28;20020;-78
2023/09/17 04:42:53;;;;;;;20.00;17.83;;;;;;;18.08;80.60;101104.16;5033555;28;20487;-78
2023/09/17 04:45:34;;;;;;;18.27;16.27;;;;;;;18.14;80.58;101097.53;5044775;28;20028;-78
2023/09/17 04:48:00;;;;;;;19.80;15.88;;;;;;;18.15;80.55;101100.13;5027094;28;20041;-78
2023/09/17 04:50:26;;;;;;;18.88;15.88;;;;;;;18.19;80.02;101088.28;5038338;28;20319;-77
2023/09/17 04:52:51;;;;;;;17.88;15.57;;;;;;;18.25;79.73;101095.88;5040423;28;20036;-77
2023/09/17 04:55:17;;;;;;;18.63;16.42;;;;;;;18.21;80.08;101099.72;5023458;28;20512;-77
2023/09/17 04:57:42;;;;;;;19.00;16.95;;;;;;;18.20;80.35;101097.16;5033270;28;20065;-77
2023/09/17 05:00:11;;;;;;;17.75;15.85;;;;;;;18.20;80.76;101089.97;5024536;28;20052;-78
2023/09/17 05:02:39;;;;;;;18.95;16.95;;;;;;;18.21;80.05;101091.69;5031284;28;20024;-78
2023/09/17 05:05:09;;;;;;;20.83;18.63;;;;;;;18.17;80.84;101090.19;5036031;28;20544;-78
2023/09/17 05:07:37;;;;;;;20.10;17.25;;;;;;;18.14;80.58;101089.53;5038890;28;20049;-78
2023/09/17 05:10:03;;;;;;;20.02;17.90;;;;;;;18.13;80.83;101098.50;5032179;28;20027;-78
2023/09/17 05:12:29;;;;;;;20.25;16.95;;;;;;;18.17;80.96;101103.56;5047310;28;20021;-78
2023/09/17 05:14:54;;;;;;;21.40;18.38;;;;;;;18.20;80.36;101095.31;5048771;28;20028;-78
2023/09/17 05:17:19;;;;;;;20.38;18.05;;;;;;;18.20;80.28;101105.19;5027377;28;20068;-78
2023/09/17 05:19:45;;;;;;;20.77;18.55;;;;;;;18.24;80.56;101101.34;5050778;28;20033;-78
2023/09/17 05:22:10;;;;;;;21.30;18.48;;;;;;;18.19;80.57;101107.00;5043977;28;20040;-77
2023/09/17 05:24:35;;;;;;;20.50;17.77;;;;;;;18.19;82.19;101100.78;5036820;28;20017;-77
2023/09/17 05:27:01;;;;;;;22.58;18.15;;;;;;;18.25;81.24;101111.94;5041628;28;20033;-77
2023/09/17 05:29:26;;;;;;;19.40;17.05;;;;;;;18.35;80.49;101109.47;5044992;28;20028;-77
2023/09/17 05:31:51;;;;;;;24.33;18.80;;;;;;;18.28;81.39;101111.72;5038061;28;20036;-77
2023/09/17 05:34:19;;;;;;;21.08;18.77;;;;;;;18.27;81.73;101104.63;5040957;28;20026;-77
2023/09/17 05:36:44;;;;;;;21.77;18.75;;;;;;;18.25;81.33;101105.72;5027965;28;20467;-77
2023/09/17 05:39:09;;;;;;;20.35;18.23;;;;;;;18.28;81.48;101113.56;5040244;28;20025;-77
2023/09/17 05:41:37;;;;;;;20.45;18.08;;;;;;;18.31;80.70;101108.81;5040468;28;20447;-78
2023/09/17 05:44:03;;;;;;;21.13;18.40;;;;;;;18.41;80.94;101108.19;5041035;28;20392;-79
2023/09/17 05:46:29;;;;;;;21.20;18.35;;;;;;;18.33;81.44;101112.28;5040841;28;20021;-78
2023/09/17 05:48:54;;;;;;;19.73;17.55;;;;;;;18.31;81.03;101114.19;5043019;28;20448;-79
2023/09/17 05:51:19;;;;;;;21.35;19.15;;;;;;;18.32;82.07;101112.34;5037084;28;20033;-79
2023/09/17 05:53:44;;;;;;;20.70;18.13;;;;;;;18.35;82.03;101120.19;5042334;28;20099;-79
2023/09/17 05:56:11;;;;;;;20.95;18.75;;;;;;;18.59;80.44;101109.59;5044532;28;20032;-79
2023/09/17 05:58:36;;;;;;;21.95;18.58;;;;;;;18.65;80.58;101108.31;5027979;28;20499;-78
2023/09/17 06:01:01;;;;;;;22.02;18.73;;;;;;;18.41;81.87;101110.88;5019978;28;20041;-79
2023/09/17 06:03:27;;;;;;;20.73;17.60;;;;;;;18.38;81.65;101111.09;5044976;28;20088;-79
2023/09/17 06:05:55;;;;;;;21.88;18.65;;;;;;;18.34;82.68;101113.97;5027223;28;20060;-78
2023/09/17 06:08:20;;;;;;;26.23;20.23;;;;;;;18.39;82.38;101110.13;5037101;28;20488;-78
2023/09/17 06:10:46;;;;;;;21.67;19.38;;;;;;;18.43;83.16;101101.78;5022431;28;20029;-79
2023/09/17 06:13:12;;;;;;;22.50;19.38;;;;;;;18.46;83.40;101111.41;5033827;28;20090;-79
2023/09/17 06:15:37;;;;;;;23.88;18.55;;;;;;;18.51;82.36;101111.94;5039474;28;20040;-78
2023/09/17 06:18:03;;;;;;;23.60;20.90;;;;;;;18.49;83.67;101116.56;5038988;28;20029;-78
2023/09/17 06:20:28;;;;;;;20.17;17.05;;;;;;;18.52;83.23;101113.69;5049632;28;20427;-78
2023/09/17 06:22:53;;;;;;;24.33;19.38;;;;;;;18.52;84.16;101111.00;5018556;28;20048;-78
2023/09/17 06:25:19;;;;;;;19.17;17.17;;;;;;;18.49;82.06;101120.09;5045051;28;20040;-77
2023/09/17 06:27:45;;;;;;;23.77;17.58;;;;;;;18.55;83.07;101110.78;5016579;28;20029;-78
2023/09/17 06:30:11;;;;;;;22.73;19.15;;;;;;;18.59;83.70;101106.94;5042543;28;20112;-78
2023/09/17 06:32:36;;;;;;;16.88;15.18;;;;;;;18.64;81.70;101106.59;5048398;28;20369;-77
2023/09/17 06:35:02;;;;;;;20.25;17.10;;;;;;;18.72;82.98;101106.97;5017758;28;20116;-77
2023/09/17 06:37:28;;;;;;;21.33;19.05;;;;;;;18.75;83.52;101109.44;5031940;28;20021;-77
2023/09/17 06:39:54;;;;;;;21.52;18.65;;;;;;;18.84;83.18;101111.47;5030107;28;20061;-77
2023/09/17 06:42:19;;;;;;;20.70;18.50;;;;;;;18.83;83.72;101112.41;5034480;28;20037;-77
2023/09/17 06:44:45;;;;;;;22.63;20.17;;;;;;;18.86;83.89;101114.88;5044654;28;20034;-77
2023/09/17 06:47:10;;;;;;;23.33;20.40;;;;;;;18.85;84.19;101111.34;5022918;28;20033;-77
2023/09/17 06:49:35;;;;;;;21.33;18.60;;;;;;;18.89;83.83;101105.78;5046635;28;20095;-77
2023/09/17 06:52:01;;;;;;;22.02;17.70;;;;;;;18.92;84.33;101108.22;5033662;28;20021;-78
2023/09/17 06:54:26;;;;;;;23.08;20.65;;;;;;;18.97;84.23;101117.66;5042731;28;20449;-78
2023/09/17 06:56:52;;;;;;;24.23;20.58;;;;;;;18.94;84.23;101111.69;5018846;28;20288;-78
2023/09/17 06:59:17;;;;;;;25.73;21.08;;;;;;;18.97;84.78;101114.13;5012330;28;20669;-78
2023/09/17 07:01:45;;;;;;;23.00;19.83;;;;;;;19.01;83.65;101107.59;5037437;28;20346;-78
2023/09/17 07:04:10;;;;;;;22.20;19.17;;;;;;;19.04;83.23;101104.69;5044916;28;20942;-78
2023/09/17 07:06:36;;;;;;;22.23;19.00;;;;;;;19.11;83.92;101108.63;5038711;28;20448;-78
2023/09/17 07:09:01;;;;;;;24.67;20.77;;;;;;;19.10;84.18;101098.88;5045254;28;20029;-78
2023/09/17 07:11:27;;;;;;;24.75;20.63;;;;;;;19.09;84.87;101108.75;5040927;28;20063;-78
2023/09/17 07:13:52;;;;;;;26.27;21.30;;;;;;;19.10;85.07;101110.47;5016710;28;20033;-78
2023/09/17 07:16:18;;;;;;;30.10;22.63;;;;;;;19.11;84.58;101114.00;5048441;28;20052;-78
2023/09/17 07:18:44;;;;;;;25.85;22.00;;;;;;;19.17;85.31;101118.94;5034752;28;20056;-78
2023/09/17 07:21:10;;;;;;;23.60;21.10;;;;;;;19.21;84.55;101108.81;5037042;28;20120;-78
2023/09/17 07:23:35;;;;;;;24.55;20.20;;;;;;;19.29;84.34;101114.50;5038483;28;20136;-78
2023/09/17 07:26:02;;;;;;;25.00;21.08;;;;;;;19.35;84.97;101112.25;5018549;28;20059;-78
2023/09/17 07:28:28;;;;;;;26.08;21.85;;;;;;;19.37;85.57;101110.28;5043132;28;20021;-78
2023/09/17 07:30:55;;;;;;;31.45;22.02;;;;;;;19.43;84.35;101108.13;5039593;28;20144;-78
2023/09/17 07:33:20;;;;;;;28.52;22.60;;;;;;;19.49;84.93;101097.84;5047494;28;20028;-78
2023/09/17 07:35:45;;;;;;;26.20;20.98;;;;;;;19.53;84.48;101103.81;5044620;28;20033;-78
2023/09/17 07:38:11;;;;;;;27.20;22.08;;;;;;;19.54;84.11;101094.81;5040231;28;20021;-78
2023/09/17 07:40:36;;;;;;;29.10;23.77;;;;;;;19.61;84.91;101105.00;5045957;28;20033;-77
2023/09/17 07:43:03;;;;;;;27.85;23.45;;;;;;;19.67;85.46;101097.47;5040345;28;20029;-78
2023/09/17 07:45:28;;;;;;;30.98;24.67;;;;;;;19.67;85.90;101103.66;5039099;28;20025;-78
2023/09/17 07:47:54;;;;;;;26.60;22.80;;;;;;;19.70;85.18;101102.59;5044142;28;20392;-78
2023/09/17 07:50:19;;;;;;;26.65;21.25;;;;;;;19.74;83.99;101104.09;5036369;28;20021;-78
2023/09/17 07:52:45;;;;;;;31.95;23.95;;;;;;;19.79;85.30;101104.59;5024975;28;20028;-78
2023/09/17 07:55:10;;;;;;;33.65;26.38;;;;;;;19.78;85.12;101103.75;5033528;28;20030;-78
2023/09/17 07:57:35;;;;;;;31.27;24.52;;;;;;;19.84;85.00;101102.44;5023414;28;20259;-78
2023/09/17 08:00:01;;;;;;;30.92;25.55;;;;;;;19.95;84.75;101107.84;5044340;28;20046;-78
2023/09/17 08:02:26;;;;;;;35.72;26.70;;;;;;;20.01;85.67;101115.44;5040774;28;20511;-78
2023/09/17 08:04:51;;;;;;;33.55;27.27;;;;;;;20.05;85.61;101116.03;5051392;28;20164;-78
2023/09/17 08:07:17;;;;;;;29.10;24.60;;;;;;;20.13;83.66;101114.50;5043237;28;20072;-78
2023/09/17 08:09:43;;;;;;;32.33;25.75;;;;;;;20.23;83.77;101119.16;5034935;28;20140;-79
2023/09/17 08:12:09;;;;;;;29.55;24.38;;;;;;;20.26;83.46;101118.94;5042693;28;20020;-79
2023/09/17 08:14:35;;;;;;;33.15;27.92;;;;;;;20.28;82.76;101116.97;5034227;28;20029;-78
2023/09/17 08:17:01;;;;;;;37.75;28.30;;;;;;;20.25;84.53;101119.91;5033876;28;20748;-77
2023/09/17 08:19:26;;;;;;;40.65;31.05;;;;;;;20.30;84.67;101121.28;5032784;28;20044;-78
2023/09/17 08:21:51;;;;;;;34.90;27.08;;;;;;;20.35;83.72;101127.16;5036801;28;20017;-78
2023/09/17 08:24:20;;;;;;;34.13;28.33;;;;;;;20.38;83.55;101118.88;5036452;28;20964;-79
2023/09/17 08:26:45;;;;;;;37.35;30.67;;;;;;;20.35;84.64;101128.97;5053844;28;20058;-79
2023/09/17 08:29:10;;;;;;;34.95;28.27;;;;;;;20.44;82.47;101127.41;5048492;28;20496;-79
2023/09/17 08:31:36;;;;;;;36.00;29.05;;;;;;;20.59;83.10;101127.13;5030934;28;20029;-79
2023/09/17 08:34:03;;;;;;;37.92;30.45;;;;;;;20.52;83.86;101133.09;5020413;28;20059;-79
2023/09/17 08:36:28;;;;;;;36.38;28.50;;;;;;;20.44;82.35;101133.66;5017868;28;20455;-78
2023/09/17 08:38:54;;;;;;;36.22;29.13;;;;;;;20.44;83.02;101127.41;5017741;28;20025;-78
2023/09/17 08:41:22;;;;;;;33.72;27.13;;;;;;;20.44;81.70;101125.59;5046317;28;20033;-79
2023/09/17 08:43:49;;;;;;;40.15;31.90;;;;;;;20.50;82.41;101121.59;5033895;28;21746;-79
2023/09/17 08:46:14;;;;;;;40.55;30.77;;;;;;;20.61;82.65;101124.28;5022078;28;20433;-79
2023/09/17 08:48:40;;;;;;;42.35;30.00;;;;;;;20.72;83.02;101121.66;5020129;28;20060;-79
2023/09/17 08:51:09;;;;;;;38.35;29.27;;;;;;;20.74;83.55;101126.88;5038996;28;20071;-79
2023/09/17 08:53:40;;;;;;;38.75;32.47;;;;;;;20.79;83.15;101133.59;5026254;28;20052;-78
2023/09/17 08:56:06;;;;;;;38.22;31.85;;;;;;;20.72;81.36;101136.91;5035000;28;20021;-79
2023/09/17 08:58:38;;;;;;;43.72;34.83;;;;;;;20.60;84.31;101146.78;5013097;28;20030;-79
2023/09/17 09:01:04;;;;;;;;;;;;;;;20.76;81.81;101143.75;5040262;28;20056;-78
2023/09/17 09:03:33;;;;;;;38.85;30.38;;;;;;;20.67;82.21;101144.47;5039032;28;20322;-78
2023/09/17 09:06:00;;;;;;;46.45;34.85;;;;;;;20.69;82.97;101150.56;5029212;28;20036;-78
2023/09/17 09:08:25;;;;;;;47.72;35.85;;;;;;;20.70;84.65;101145.06;5030482;28;20053;-78
2023/09/17 09:10:51;;;;;;;46.30;34.05;;;;;;;20.91;83.01;101153.31;5032693;28;20071;-79
2023/09/17 09:13:18;;;;;;;43.22;35.05;;;;;;;21.06;82.85;101148.53;5040380;28;20038;-79
2023/09/17 09:15:44;;;;;;;41.78;34.45;;;;;;;21.24;82.00;101157.84;5031396;28;20122;-79
2023/09/17 09:18:09;;;;;;;41.67;32.35;;;;;;;21.24;81.48;101159.69;5017221;28;20029;-79
2023/09/17 09:20:36;;;;;;;43.83;34.88;;;;;;;21.43;80.95;101161.78;5043072;28;20028;-78
2023/09/17 09:23:02;;;;;;;41.92;33.78;;;;;;;21.53;80.00;101154.66;5041497;28;20092;-78
2023/09/17 09:25:28;;;;;;;49.38;35.67;;;;;;;21.50;81.79;101163.00;5017825;28;20024;-78
2023/09/17 09:27:58;;;;;;;49.25;36.05;;;;;;;21.45;80.77;101162.50;5040080;28;20475;-77
2023/09/17 09:30:25;;;;;;;49.30;36.03;;;;;;;21.51;81.43;101162.88;5040912;28;20508;-78
2023/09/17 09:32:51;;;;;;;44.63;34.35;;;;;;;21.37;81.47;101155.06;5034856;28;20029;-78
2023/09/17 09:35:16;;;;;;;42.10;31.65;;;;;;;21.45;81.22;101149.03;5037803;28;20033;-78
2023/09/17 09:37:43;;;;;;;40.17;31.55;;;;;;;21.37;81.56;101155.06;5035056;28;20095;-77
2023/09/17 09:40:09;;;;;;;37.28;28.80;;;;;;;21.38;80.83;101151.38;5028477;28;20032;-77
2023/09/17 09:42:35;;;;;;;42.55;32.92;;;;;;;21.25;81.65;101142.56;5034861;28;20021;-77
2023/09/17 09:45:02;;;;;;;42.15;31.13;;;;;;;21.19;83.23;101141.22;5037346;28;20079;-77
2023/09/17 09:47:30;;;;;;;39.50;30.42;;;;;;;21.22;82.74;101150.88;5043168;28;20033;-76
2023/09/17 09:49:56;;;;;;;38.50;30.38;;;;;;;21.21;82.75;101141.09;5030560;28;20067;-76
2023/09/17 09:52:25;;;;;;;40.90;30.45;;;;;;;21.17;81.46;101142.31;5033528;28;20032;-78
2023/09/17 09:54:50;;;;;;;39.47;29.80;;;;;;;21.19;81.93;101151.13;5034960;28;20064;-75
2023/09/17 09:57:18;;;;;;;39.92;30.42;;;;;;;21.19;82.11;101149.28;5040536;28;20134;-75
2023/09/17 09:59:46;;;;;;;41.58;31.08;;;;;;;21.19;81.87;101156.50;5047245;28;20029;-75
2023/09/17 10:02:13;;;;;;;44.53;29.05;;;;;;;21.16;81.61;101157.59;5046095;28;20737;-75
2023/09/17 10:04:39;;;;;;;41.47;30.13;;;;;;;21.17;81.94;101147.69;5042935;28;20108;-75
2023/09/17 10:07:07;;;;;;;42.80;30.08;;;;;;;21.18;82.49;101146.72;5043418;28;20723;-74
2023/09/17 10:09:33;;;;;;;40.90;30.17;;;;;;;21.14;82.27;101149.66;5033979;28;20111;-75
2023/09/17 10:11:58;;;;;;;42.47;30.13;;;;;;;21.17;82.54;101150.38;5041523;28;20154;-75
2023/09/17 10:14:25;;;;;;;43.58;30.77;;;;;;;21.27;81.41;101152.22;5022758;28;20083;-75
2023/09/17 10:16:51;;;;;;;44.55;31.98;;;;;;;21.22;81.29;101151.75;5037218;28;20167;-75
2023/09/17 10:19:20;;;;;;;45.67;31.02;;;;;;;21.23;81.55;101144.53;5044113;28;20028;-75
2023/09/17 10:21:50;;;;;;;40.85;29.45;;;;;;;21.62;80.06;101132.38;5039560;28;20082;-75
2023/09/17 10:24:17;;;;;;;37.85;28.45;;;;;;;21.97;78.92;101136.72;5035573;28;20148;-75
2023/09/17 10:26:44;;;;;;;41.58;29.58;;;;;;;22.09;78.59;101143.75;5037396;28;20447;-75
2023/09/17 10:29:11;;;;;;;44.75;29.88;;;;;;;21.84;80.16;101142.25;5035362;28;20455;-75
2023/09/17 10:31:37;;;;;;;40.22;29.92;;;;;;;21.88;79.98;101123.03;5036316;28;20033;-75
2023/09/17 10:34:04;;;;;;;41.10;27.10;;;;;;;21.99;78.88;101127.50;5034700;28;20045;-75
2023/09/17 10:36:31;;;;;;;39.35;27.45;;;;;;;22.23;77.61;101127.31;5042826;28;20468;-75
2023/09/17 10:38:59;;;;;;;43.63;29.00;;;;;;;22.31;76.61;101126.66;5036954;28;20029;-75
2023/09/17 10:41:25;;;;;;;39.80;26.52;;;;;;;22.00;77.07;101129.19;5038646;28;20026;-75
2023/09/17 10:43:52;;;;;;;37.60;26.50;;;;;;;22.06;78.56;101130.56;5041121;28;20037;-75
2023/09/17 10:46:19;;;;;;;40.55;26.33;;;;;;;22.26;77.94;101120.81;5041048;28;20029;-75
2023/09/17 10:48:44;;;;;;;37.60;25.85;;;;;;;22.52;76.84;101121.25;5034601;28;20041;-75
2023/09/17 10:51:10;;;;;;;32.40;24.80;;;;;;;22.64;77.11;101126.47;5030878;28;20503;-75
2023/09/17 10:53:36;;;;;;;33.75;23.40;;;;;;;22.57;75.52;101121.72;5035871;28;21775;-76
2023/09/17 10:56:08;;;;;;;38.78;24.95;;;;;;;22.38;78.15;101120.63;5037039;28;20087;-75
2023/09/17 10:58:43;;;;;;;33.60;23.88;;;;;;;22.33;77.09;101122.84;5042613;28;20033;-75
2023/09/17 11:01:12;;;;;;;32.63;23.25;;;;;;;22.47;77.25;101121.66;5039944;28;20524;-75
2023/09/17 11:03:41;;;;;;;34.47;22.42;;;;;;;22.69;76.14;101111.72;5043178;28;20037;-75
2023/09/17 11:06:23;;;;;;;32.15;24.73;;;;;;;22.94;74.54;101118.56;5039800;28;20033;-75